Time;durP1;ratioP1;P1;durP2;ratioP2;P2;SDS_P1;SDS_P2;PMS_P1;PMS_P2;Temp;Humidity;BMP_temperature;BMP_pressure;BME280_temperature;BME280_humidity;BME280_pressure;Samples;Min_cycle;Max_cycle;Signal;HPM_P1;HPM_P2
2021/08/10 00:01:25;;;;;;;2.8;2.5;;;;;;;;;;;;;
2021/08/10 00:03:52;;;;;;;2.9;2.2;;;;;;;;;;;;;
2021/08/10 00:06:16;;;;;;;3.6;2.5;;;;;;;;;;;;;
2021/08/10 00:08:41;;;;;;;3.8;2.4;;;;;;;;;;;;;
2021/08/10 00:11:07;;;;;;;2.9;2.1;;;;;;;;;;;;;
2021/08/10 00:13:34;;;;;;;3.4;2.1;;;;;;;;;;;;;
2021/08/10 00:16:01;;;;;;;2.6;2.3;;;;;;;;;;;;;
2021/08/10 00:18:26;;;;;;;3.2;2.3;;;;;;;;;;;;;
2021/08/10 00:20:51;;;;;;;2.2;2;;;;;;;;;;;;;
2021/08/10 00:23:16;;;;;;;3.2;2.4;;;;;;;;;;;;;
2021/08/10 00:25:41;;;;;;;4;2.2;;;;;;;;;;;;;
2021/08/10 00:28:07;;;;;;;20.3;3.2;;;;;;;;;;;;;
2021/08/10 00:30:32;;;;;;;21.5;4.1;;;;;;;;;;;;;
2021/08/10 00:32:57;;;;;;;2.7;2.3;;;;;;;;;;;;;
2021/08/10 00:35:22;;;;;;;3.9;2.4;;;;;;;;;;;;;
2021/08/10 00:37:47;;;;;;;10.8;2.6;;;;;;;;;;;;;
2021/08/10 00:40:13;;;;;;;3.1;2.6;;;;;;;;;;;;;
2021/08/10 00:42:38;;;;;;;3.8;2.8;;;;;;;;;;;;;
2021/08/10 00:45:03;;;;;;;4.1;2.6;;;;;;;;;;;;;
2021/08/10 00:47:28;;;;;;;4.8;2.6;;;;;;;;;;;;;
2021/08/10 00:49:54;;;;;;;3.8;3.1;;;;;;;;;;;;;
2021/08/10 00:52:19;;;;;;;3;2.4;;;;;;;;;;;;;
2021/08/10 00:54:45;;;;;;;3.3;2.8;;;;;;;;;;;;;
2021/08/10 00:57:10;;;;;;;2.8;2.5;;;;;;;;;;;;;
2021/08/10 00:59:35;;;;;;;3.2;2.6;;;;;;;;;;;;;
2021/08/10 01:02:00;;;;;;;4.2;2.5;;;;;;;;;;;;;
2021/08/10 01:04:25;;;;;;;3.2;2.6;;;;;;;;;;;;;
2021/08/10 01:06:50;;;;;;;4.1;3;;;;;;;;;;;;;
2021/08/10 01:09:15;;;;;;;4.9;2.8;;;;;;;;;;;;;
2021/08/10 01:11:41;;;;;;;3.3;2.6;;;;;;;;;;;;;
2021/08/10 01:14:06;;;;;;;2.7;2.3;;;;;;;;;;;;;
2021/08/10 01:16:31;;;;;;;3.2;2.3;;;;;;;;;;;;;
2021/08/10 01:18:57;;;;;;;4;2.4;;;;;;;;;;;;;
2021/08/10 01:21:22;;;;;;;3.4;2.6;;;;;;;;;;;;;
2021/08/10 01:23:49;;;;;;;4;2.5;;;;;;;;;;;;;
2021/08/10 01:26:14;;;;;;;2.6;2.2;;;;;;;;;;;;;
2021/08/10 01:28:39;;;;;;;3.1;2.6;;;;;;;;;;;;;
2021/08/10 01:31:06;;;;;;;3.9;2.4;;;;;;;;;;;;;
2021/08/10 01:33:31;;;;;;;3.1;2.3;;;;;;;;;;;;;
2021/08/10 01:35:58;;;;;;;3.3;2.5;;;;;;;;;;;;;
2021/08/10 01:38:23;;;;;;;3.5;2.5;;;;;;;;;;;;;
2021/08/10 01:40:51;;;;;;;3.2;2.5;;;;;;;;;;;;;
2021/08/10 01:43:15;;;;;;;3.5;2.4;;;;;;;;;;;;;
2021/08/10 01:45:41;;;;;;;3.5;2.3;;;;;;;;;;;;;
2021/08/10 01:48:06;;;;;;;3.3;2.4;;;;;;;;;;;;;
2021/08/10 01:50:33;;;;;;;4;2.8;;;;;;;;;;;;;
2021/08/10 01:52:58;;;;;;;3.8;2.5;;;;;;;;;;;;;
2021/08/10 01:55:24;;;;;;;3.3;2.6;;;;;;;;;;;;;
2021/08/10 01:57:49;;;;;;;4;2.3;;;;;;;;;;;;;
2021/08/10 02:00:15;;;;;;;3.1;2.5;;;;;;;;;;;;;
2021/08/10 02:02:40;;;;;;;5.6;2.8;;;;;;;;;;;;;
2021/08/10 02:05:09;;;;;;;3.3;2.3;;;;;;;;;;;;;
2021/08/10 02:07:34;;;;;;;3.7;2.7;;;;;;;;;;;;;
2021/08/10 02:09:59;;;;;;;3.8;2.4;;;;;;;;;;;;;
2021/08/10 02:12:25;;;;;;;2.6;2.4;;;;;;;;;;;;;
2021/08/10 02:14:50;;;;;;;3.2;2.6;;;;;;;;;;;;;
2021/08/10 02:17:16;;;;;;;3.9;2.6;;;;;;;;;;;;;
2021/08/10 02:19:41;;;;;;;3.2;2.6;;;;;;;;;;;;;
2021/08/10 02:22:07;;;;;;;2.5;2.3;;;;;;;;;;;;;
2021/08/10 02:24:33;;;;;;;3.7;2.7;;;;;;;;;;;;;
2021/08/10 02:26:58;;;;;;;2.8;2.2;;;;;;;;;;;;;
2021/08/10 02:29:24;;;;;;;3.7;2.5;;;;;;;;;;;;;
2021/08/10 02:31:49;;;;;;;2.9;2.6;;;;;;;;;;;;;
2021/08/10 02:34:14;;;;;;;3.9;2.6;;;;;;;;;;;;;
2021/08/10 02:36:39;;;;;;;2.9;2.2;;;;;;;;;;;;;
2021/08/10 02:39:04;;;;;;;3.5;2.5;;;;;;;;;;;;;
2021/08/10 02:41:30;;;;;;;3.1;2.7;;;;;;;;;;;;;
2021/08/10 02:43:55;;;;;;;4.2;2.5;;;;;;;;;;;;;
2021/08/10 02:46:20;;;;;;;3.7;2.6;;;;;;;;;;;;;
2021/08/10 02:48:45;;;;;;;4.4;3;;;;;;;;;;;;;
2021/08/10 02:51:11;;;;;;;120;82.5;;;;;;;;;;;;;
2021/08/10 02:53:36;;;;;;;32.7;22.9;;;;;;;;;;;;;
2021/08/10 02:56:01;;;;;;;4.8;4.1;;;;;;;;;;;;;
2021/08/10 02:58:26;;;;;;;4.6;3.2;;;;;;;;;;;;;
2021/08/10 03:00:52;;;;;;;5.7;3.1;;;;;;;;;;;;;
2021/08/10 03:03:17;;;;;;;4.5;3.2;;;;;;;;;;;;;
2021/08/10 03:05:42;;;;;;;3.8;2.5;;;;;;;;;;;;;
2021/08/10 03:08:08;;;;;;;3.9;2.7;;;;;;;;;;;;;
2021/08/10 03:10:32;;;;;;;3.3;2.6;;;;;;;;;;;;;
2021/08/10 03:12:58;;;;;;;3.9;2.6;;;;;;;;;;;;;
2021/08/10 03:15:27;;;;;;;3.2;2.5;;;;;;;;;;;;;
2021/08/10 03:17:52;;;;;;;3.6;2.8;;;;;;;;;;;;;
2021/08/10 03:20:17;;;;;;;4.4;2.5;;;;;;;;;;;;;
2021/08/10 03:22:44;;;;;;;3.4;2.6;;;;;;;;;;;;;
2021/08/10 03:25:09;;;;;;;3.6;2.5;;;;;;;;;;;;;
2021/08/10 03:27:34;;;;;;;4;2.9;;;;;;;;;;;;;
2021/08/10 03:30:00;;;;;;;6.2;4.5;;;;;;;;;;;;;
2021/08/10 03:32:25;;;;;;;6;4.3;;;;;;;;;;;;;
2021/08/10 03:34:51;;;;;;;6.8;5;;;;;;;;;;;;;
2021/08/10 03:37:17;;;;;;;5;3.5;;;;;;;;;;;;;
2021/08/10 03:39:43;;;;;;;7.3;4.2;;;;;;;;;;;;;
2021/08/10 03:42:08;;;;;;;4.8;3.6;;;;;;;;;;;;;
2021/08/10 03:44:34;;;;;;;4.8;3;;;;;;;;;;;;;
2021/08/10 03:46:59;;;;;;;5.3;3.5;;;;;;;;;;;;;
2021/08/10 03:49:25;;;;;;;3.5;2.8;;;;;;;;;;;;;
2021/08/10 03:51:50;;;;;;;4.4;3;;;;;;;;;;;;;
2021/08/10 03:54:16;;;;;;;4.3;2.8;;;;;;;;;;;;;
2021/08/10 03:56:51;;;;;;;3.5;2.7;;;;;;;;;;;;;
2021/08/10 03:59:07;;;;;;;3.6;2.9;;;;;;;;;;;;;
2021/08/10 04:02:31;;;;;;;4.3;2.8;;;;;;;13.34;95.56543;941.5747;;;;
2021/08/10 04:04:56;;;;;;;4.2;3.1;;;;;;;13.08;97.23047;941.5817;;;;
2021/08/10 04:07:24;;;;;;;5.7;3.1;;;;;;;13.1;98.07324;941.6066;;;;
2021/08/10 04:09:49;;;;;;;3.6;2.7;;;;;;;13.23;97.59766;941.5471;;;;
2021/08/10 04:12:14;;;;;;;6.1;3.3;;;;;;;13.3;97.11816;941.5744;;;;
2021/08/10 04:14:42;;;;;;;6.8;3;;;;;;;13.44;95.95508;941.5553;;;;
2021/08/10 04:17:07;;;;;;;4.6;3;;;;;;;13.55;95.0127;941.5485;;;;
2021/08/10 04:19:35;;;;;;;6.6;2.9;;;;;;;13.67;94.21094;941.5811;;;;
2021/08/10 04:21:59;;;;;;;4.4;3;;;;;;;13.59;93.8252;941.543;;;;
2021/08/10 04:24:28;;;;;;;5.5;3.3;;;;;;;13.58;94.3291;941.5317;;;;
2021/08/10 04:26:57;;;;;;;3.5;2.7;;;;;;;13.46;94.5791;941.5553;;;;
2021/08/10 04:29:26;;;;;;;2.8;2.5;;;;;;;13.24;95.93164;941.5486;;;;
2021/08/10 04:31:51;;;;;;;3.4;2.9;;;;;;;13.28;96.95508;941.4336;;;;
2021/08/10 04:34:19;;;;;;;3.4;2.8;;;;;;;13.45;96.02344;941.4305;;;;
2021/08/10 04:36:44;;;;;;;3.9;3;;;;;;;13.58;94.75391;941.4573;;;;
2021/08/10 04:39:10;;;;;;;3.7;2.8;;;;;;;13.65;93.82715;941.4683;;;;
2021/08/10 04:41:35;;;;;;;8.8;3.4;;;;;;;13.63;93.56055;941.4171;;;;
2021/08/10 04:44:00;;;;;;;7.1;3.5;;;;;;;13.57;95.9248;941.3757;;;;
2021/08/10 04:46:27;;;;;;;4.9;3.4;;;;;;;13.56;94.77344;941.4133;;;;
2021/08/10 04:48:53;;;;;;;5.9;3;;;;;;;13.51;95.13184;941.4539;;;;
2021/08/10 04:51:20;;;;;;;4.6;3;;;;;;;13.6;95.52832;941.4398;;;;
2021/08/10 04:53:45;;;;;;;3.9;2.9;;;;;;;13.75;95.2959;941.43;;;;
2021/08/10 04:56:11;;;;;;;4.1;3.1;;;;;;;13.87;94.33398;941.4258;;;;
2021/08/10 04:58:36;;;;;;;4.8;3.4;;;;;;;13.9;94.36523;941.4179;;;;
2021/08/10 05:01:02;;;;;;;5.5;3.2;;;;;;;13.92;94.16113;941.3962;;;;
2021/08/10 05:03:27;;;;;;;5;2.9;;;;;;;13.95;93.91406;941.4059;;;;
2021/08/10 05:05:53;;;;;;;3.7;3;;;;;;;13.88;94.36133;941.3627;;;;
2021/08/10 05:08:18;;;;;;;4.8;3.2;;;;;;;13.89;94.35156;941.377;;;;
2021/08/10 05:10:45;;;;;;;3.9;2.9;;;;;;;13.88;94.52148;941.3481;;;;
2021/08/10 05:13:10;;;;;;;7.6;3.4;;;;;;;13.93;94.1543;941.3298;;;;
2021/08/10 05:15:36;;;;;;;3.4;3;;;;;;;13.97;94.08105;941.2659;;;;
2021/08/10 05:18:05;;;;;;;5;2.9;;;;;;;14.08;93.71289;941.3047;;;;
2021/08/10 05:20:30;;;;;;;5.9;3;;;;;;;14;94.29395;941.3107;;;;
2021/08/10 05:22:58;;;;;;;4.1;2.9;;;;;;;14.03;94.5166;941.2614;;;;
2021/08/10 05:25:23;;;;;;;4.7;3;;;;;;;14.13;93.9873;941.3143;;;;
2021/08/10 05:27:49;;;;;;;3.7;3;;;;;;;14.27;93.64844;941.317;;;;
2021/08/10 05:30:14;;;;;;;5.1;3;;;;;;;14.34;93.2373;941.3027;;;;
2021/08/10 05:33:27;;;;;;;4.2;2.9;;;;;;;14.64;92.84082;941.3145;;;;
2021/08/10 05:35:55;;;;;;;4.2;2.3;;;;;;;16.49;82.90918;941.2064;;;;
2021/08/10 05:38:19;;;;;;;3.4;2.3;;;;;;;17.79;77.21289;941.1927;;;;
2021/08/10 05:40:44;;;;;;;4;2.3;;;;;;;18.81;73.12207;941.2172;;;;
2021/08/10 05:43:11;;;;;;;2.8;2.1;;;;;;;19.96;68.05078;941.2054;;;;
2021/08/10 05:45:36;;;;;;;3.4;2;;;;;;;19.96;67.01172;941.195;;;;
2021/08/10 05:48:02;;;;;;;3.1;1.9;;;;;;;20.1;66.62598;941.2139;;;;
2021/08/10 05:50:27;;;;;;;2.5;1.7;;;;;;;20.65;63.58789;941.0978;;;;
2021/08/10 05:52:54;;;;;;;2.3;1.8;;;;;;;21.52;60.83301;941.1191;;;;
2021/08/10 05:55:19;;;;;;;2.7;2;;;;;;;20.56;62.39551;941.1976;;;;
2021/08/10 05:57:46;;;;;;;2.3;1.9;;;;;;;21.42;60.91211;941.0723;;;;
2021/08/10 06:00:11;;;;;;;2.9;1.8;;;;;;;21.7;60.77637;941.132;;;;
2021/08/10 06:02:38;;;;;;;2.5;1.8;;;;;;;22.27;59.38672;941.0862;;;;
2021/08/10 06:05:03;;;;;;;2.5;1.7;;;;;;;22.33;58.35156;941.0772;;;;
2021/08/10 06:07:32;;;;;;;2.1;1.6;;;;;;;23.61;54.57813;941.0457;;;;
2021/08/10 06:09:57;;;;;;;3.8;1.6;;;;;;;24.36;53.58691;941.0642;;;;
2021/08/10 06:12:23;;;;;;;2;1.5;;;;;;;23.85;53.93848;941.0887;;;;
2021/08/10 06:14:48;;;;;;;2;1.7;;;;;;;23.49;54.49414;941.0815;;;;
2021/08/10 06:17:13;;;;;;;2.7;1.9;;;;;;;23.39;54.05859;941.0228;;;;
2021/08/10 06:19:39;;;;;;;2.5;1.7;;;;;;;25.13;49.71484;941.0037;;;;
2021/08/10 06:22:04;;;;;;;2.9;1.8;;;;;;;24.3;51;941.068;;;;
2021/08/10 06:24:31;;;;;;;1.6;1.5;;;;;;;23.6;52.91992;940.9941;;;;
2021/08/10 06:26:55;;;;;;;2.4;2;;;;;;;22.58;57.05859;940.9687;;;;
2021/08/10 06:29:22;;;;;;;3.2;1.8;;;;;;;22.81;55.82031;940.9208;;;;
2021/08/10 06:31:47;;;;;;;2.2;1.7;;;;;;;22.18;57.81543;940.9428;;;;
2021/08/10 06:34:13;;;;;;;4.2;2.1;;;;;;;22.53;57.36816;940.9306;;;;
2021/08/10 06:36:41;;;;;;;2.1;1.6;;;;;;;23.32;57.25879;940.8945;;;;
2021/08/10 06:39:04;;;;;;;2.1;1.7;;;;;;;24.71;54.01953;940.9006;;;;
2021/08/10 06:41:29;;;;;;;3.9;1.8;;;;;;;26.16;48.75098;940.8855;;;;
2021/08/10 06:43:54;;;;;;;1.7;1.5;;;;;;;26.3;46.4834;940.8389;;;;
2021/08/10 06:46:24;;;;;;;3.1;2.1;;;;;;;24.98;50.17969;940.9088;;;;
2021/08/10 06:48:47;;;;;;;2;1.8;;;;;;;23.7;52.84863;940.9052;;;;
2021/08/10 06:51:13;;;;;;;2.9;1.6;;;;;;;23.74;54.72363;940.7786;;;;
2021/08/10 06:53:38;;;;;;;2.2;1.6;;;;;;;25.27;52.0332;940.7266;;;;
2021/08/10 06:56:04;;;;;;;1.5;1.4;;;;;;;26.74;46.77734;940.718;;;;
2021/08/10 06:58:29;;;;;;;3.2;2.2;;;;;;;26.92;45.74121;940.6957;;;;
2021/08/10 07:00:55;;;;;;;1.7;1.6;;;;;;;27.56;45.27246;940.7342;;;;
2021/08/10 07:03:20;;;;;;;2.3;2;;;;;;;26.75;44.58691;940.69;;;;
2021/08/10 07:05:46;;;;;;;3.3;2.9;;;;;;;27;45.9043;940.6886;;;;
2021/08/10 07:08:11;;;;;;;5;4.5;;;;;;;26.14;47.7207;940.7059;;;;
2021/08/10 07:10:37;;;;;;;1.8;1.5;;;;;;;26.81;46.54785;940.7089;;;;
2021/08/10 07:13:03;;;;;;;2.5;1.9;;;;;;;28.6;42.98633;940.7107;;;;
2021/08/10 07:15:35;;;;;;;2.1;1.9;;;;;;;29.91;40.11719;940.6484;;;;
2021/08/10 07:18:06;;;;;;;1.9;1.6;;;;;;;31.29;37.1416;940.7103;;;;
2021/08/10 07:20:36;;;;;;;2;1.7;;;;;;;30.74;39.82129;940.671;;;;
2021/08/10 07:23:01;;;;;;;2;1.8;;;;;;;31.42;35.48828;940.6714;;;;
2021/08/10 07:25:31;;;;;;;3.2;1.6;;;;;;;32.3;36.37207;940.7349;;;;
2021/08/10 07:27:57;;;;;;;1.6;1.4;;;;;;;34.09;32.53027;940.6522;;;;
2021/08/10 07:30:21;;;;;;;2.1;1.7;;;;;;;34.35;31.50098;940.6355;;;;
2021/08/10 07:32:47;;;;;;;1.9;1.4;;;;;;;34.26;31.14551;940.6509;;;;
2021/08/10 07:35:12;;;;;;;1.4;1.3;;;;;;;33.46;32.26953;940.6741;;;;
2021/08/10 07:37:39;;;;;;;1.6;1.3;;;;;;;31.68;35.55566;940.5975;;;;
2021/08/10 07:40:04;;;;;;;1.7;1.6;;;;;;;30.96;35.9541;940.5691;;;;
2021/08/10 07:42:33;;;;;;;1.5;1.4;;;;;;;32.97;32.87109;940.6283;;;;
2021/08/10 07:44:58;;;;;;;2.2;1.4;;;;;;;32.05;33.34375;940.6692;;;;
2021/08/10 07:47:26;;;;;;;1.8;1.7;;;;;;;33.75;31.95313;940.6677;;;;
2021/08/10 07:49:51;;;;;;;1.8;1.6;;;;;;;35.18;29.45898;940.652;;;;
2021/08/10 07:52:16;;;;;;;1.5;1.4;;;;;;;36.29;29.86816;940.7202;;;;
2021/08/10 07:54:42;;;;;;;1.8;1.7;;;;;;;34.53;31.33203;940.6809;;;;
2021/08/10 07:57:09;;;;;;;2.3;1.6;;;;;;;35.89;29.2627;940.6661;;;;
2021/08/10 07:59:34;;;;;;;1.6;1.5;;;;;;;36.88;29.90723;940.6957;;;;
2021/08/10 08:02:01;;;;;;;2;1.7;;;;;;;37.18;28.25391;940.699;;;;
2021/08/10 08:04:26;;;;;;;1.9;1.7;;;;;;;37.1;28.84277;940.7094;;;;
2021/08/10 08:06:51;;;;;;;2;1.5;;;;;;;36.61;29.06641;940.74;;;;
2021/08/10 08:09:17;;;;;;;1.6;1.5;;;;;;;37.73;28.10547;940.7162;;;;
2021/08/10 08:11:43;;;;;;;1.5;1.4;;;;;;;35.89;30.42285;940.7209;;;;
2021/08/10 08:14:08;;;;;;;1.7;1.6;;;;;;;34.43;33.07227;940.6311;;;;
2021/08/10 08:16:43;;;;;;;1.7;1.4;;;;;;;33.03;37.00684;940.6484;;;;
2021/08/10 08:19:11;;;;;;;2.1;1.6;;;;;;;34.74;33.87891;940.551;;;;
2021/08/10 08:21:36;;;;;;;2.3;1.8;;;;;;;35;33.29492;940.5416;;;;
2021/08/10 08:24:12;;;;;;;1.8;1.6;;;;;;;32.32;37.69336;940.61;;;;
2021/08/10 08:26:37;;;;;;;4.6;1.9;;;;;;;30.71;38.7666;940.5848;;;;
2021/08/10 08:29:02;;;;;;;1.6;1.5;;;;;;;33.07;37.44238;940.5999;;;;
2021/08/10 08:31:31;;;;;;;1.7;1.6;;;;;;;32.46;36.70996;940.616;;;;
2021/08/10 08:33:56;;;;;;;2.4;1.7;;;;;;;33.06;35.77148;940.6096;;;;
2021/08/10 08:36:24;;;;;;;2.4;1.6;;;;;;;32.46;37.12988;940.5945;;;;
2021/08/10 08:38:49;;;;;;;1.9;1.8;;;;;;;34.02;33.58496;940.5611;;;;
2021/08/10 08:41:17;;;;;;;2.1;1.5;;;;;;;34.86;32.45313;940.5584;;;;
2021/08/10 08:43:42;;;;;;;1.7;1.6;;;;;;;34.6;32.78418;940.5037;;;;
2021/08/10 08:46:09;;;;;;;2;1.8;;;;;;;32.07;37.00195;940.558;;;;
2021/08/10 08:48:34;;;;;;;1.7;1.6;;;;;;;32.97;35.27344;940.6361;;;;
2021/08/10 08:50:59;;;;;;;2;1.8;;;;;;;32.1;36.41602;940.616;;;;
2021/08/10 08:53:24;;;;;;;1.6;1.5;;;;;;;31.56;37.03125;940.6505;;;;
2021/08/10 08:55:52;;;;;;;2.1;1.9;;;;;;;32.32;37.77734;940.6067;;;;
2021/08/10 08:58:17;;;;;;;1.8;1.7;;;;;;;31.65;35.56543;940.5262;;;;
2021/08/10 09:00:42;;;;;;;1.9;1.5;;;;;;;33.31;34.87793;940.5959;;;;
2021/08/10 09:03:08;;;;;;;2.7;1.6;;;;;;;33.27;36.42578;940.5875;;;;
2021/08/10 09:05:35;;;;;;;2;1.8;;;;;;;33.97;33.84668;940.5443;;;;
2021/08/10 09:08:00;;;;;;;1.5;1.4;;;;;;;34.22;34.16504;940.515;;;;
2021/08/10 09:10:25;;;;;;;1.6;1.5;;;;;;;33.6;37.70313;940.5688;;;;
2021/08/10 09:12:53;;;;;;;1.7;1.6;;;;;;;33.84;35.31641;940.5701;;;;
2021/08/10 09:15:16;;;;;;;1.8;1.5;;;;;;;32.06;34.69922;940.5832;;;;
2021/08/10 09:17:42;;;;;;;1.4;1.3;;;;;;;30.57;38.13379;940.5843;;;;
2021/08/10 09:20:07;;;;;;;1.8;1.7;;;;;;;29.46;37.94434;940.6033;;;;
2021/08/10 09:22:33;;;;;;;2.5;1.8;;;;;;;31.65;37.05078;940.597;;;;
2021/08/10 09:24:58;;;;;;;2.1;1.6;;;;;;;31.19;38.38965;940.5977;;;;
2021/08/10 09:27:24;;;;;;;1.9;1.7;;;;;;;29.07;41.22168;940.595;;;;
2021/08/10 09:29:49;;;;;;;2.2;1.8;;;;;;;28.95;40.3291;940.5665;;;;
2021/08/10 09:32:17;;;;;;;1.7;1.6;;;;;;;28.23;42.9043;940.5288;;;;
2021/08/10 09:34:41;;;;;;;2.7;1.7;;;;;;;30.04;41.85938;940.4981;;;;
2021/08/10 09:37:07;;;;;;;2.1;1.8;;;;;;;31.57;35.93066;940.435;;;;
2021/08/10 09:39:33;;;;;;;2.3;1.8;;;;;;;32.17;35.33105;940.4314;;;;
2021/08/10 09:41:58;;;;;;;1.7;1.5;;;;;;;32.55;34.78418;940.4272;;;;
2021/08/10 09:44:24;;;;;;;2.1;1.6;;;;;;;33.09;35.39063;940.4478;;;;
2021/08/10 09:46:49;;;;;;;1.7;1.5;;;;;;;32.85;36.37988;940.4189;;;;
2021/08/10 09:49:16;;;;;;;1.8;1.5;;;;;;;31.35;39.24023;940.4348;;;;
2021/08/10 09:51:42;;;;;;;2;1.8;;;;;;;29.8;42.4209;940.4465;;;;
2021/08/10 09:54:07;;;;;;;2.7;1.8;;;;;;;29.78;40.38086;940.3726;;;;
2021/08/10 09:56:33;;;;;;;1.9;1.7;;;;;;;30.06;40.67969;940.3309;;;;
2021/08/10 09:58:59;;;;;;;3.2;1.9;;;;;;;30.87;38.1709;940.332;;;;
2021/08/10 10:01:26;;;;;;;3.1;1.9;;;;;;;31.94;36.77441;940.3137;;;;
2021/08/10 10:03:51;;;;;;;2.2;1.8;;;;;;;30.2;43.05566;940.34;;;;
2021/08/10 10:06:16;;;;;;;2.5;2;;;;;;;30.52;42.33301;940.3314;;;;
2021/08/10 10:08:43;;;;;;;2.1;1.8;;;;;;;31.14;37.46387;940.2894;;;;
2021/08/10 10:11:08;;;;;;;2;1.6;;;;;;;31.67;36.02246;940.3063;;;;
2021/08/10 10:13:34;;;;;;;2.9;1.9;;;;;;;30.52;40.16016;940.3081;;;;
2021/08/10 10:16:06;;;;;;;1.7;1.6;;;;;;;30.14;41.02148;940.3025;;;;
2021/08/10 10:18:33;;;;;;;2;1.8;;;;;;;30;40.86523;940.3231;;;;
2021/08/10 10:20:58;;;;;;;2.8;2;;;;;;;30.76;38.05371;940.2529;;;;
2021/08/10 10:23:26;;;;;;;2.4;2.1;;;;;;;31.3;37.30957;940.2333;;;;
2021/08/10 10:25:56;;;;;;;3.4;1.8;;;;;;;29.41;41.52637;940.2025;;;;
2021/08/10 10:28:21;;;;;;;2.1;1.7;;;;;;;28.82;40.77051;940.2417;;;;
2021/08/10 10:30:49;;;;;;;2.2;1.7;;;;;;;29.41;40.74023;940.1972;;;;
2021/08/10 10:33:14;;;;;;;2.9;1.7;;;;;;;29.65;39.22363;940.147;;;;
2021/08/10 10:35:39;;;;;;;2;1.8;;;;;;;30.33;40.72754;940.1346;;;;
2021/08/10 10:38:04;;;;;;;2.8;1.8;;;;;;;30.19;40.20117;940.082;;;;
2021/08/10 10:40:30;;;;;;;2.4;2;;;;;;;31.12;38.15625;940.0753;;;;
2021/08/10 10:42:56;;;;;;;2.5;1.6;;;;;;;31.88;35.44043;940.1319;;;;
2021/08/10 10:45:23;;;;;;;2.3;1.8;;;;;;;32.25;35.625;940.1088;;;;
2021/08/10 10:48:25;;;;;;;2;1.8;;;;;;;31.21;38.13965;940.0654;;;;
2021/08/10 10:50:53;;;;;;;2.5;1.9;;;;;;;32.21;34.74707;940.0514;;;;
2021/08/10 10:53:18;;;;;;;2.4;1.9;;;;;;;32.53;36.1875;940.0698;;;;
2021/08/10 10:55:44;;;;;;;3;1.8;;;;;;;33.17;32.86133;940.0474;;;;
2021/08/10 10:58:09;;;;;;;2.5;1.9;;;;;;;32.78;34.8623;939.9774;;;;
2021/08/10 11:00:34;;;;;;;2;1.7;;;;;;;32.77;33.96094;939.9567;;;;
2021/08/10 11:02:59;;;;;;;1.9;1.7;;;;;;;33.91;32.61426;939.9908;;;;
2021/08/10 11:05:26;;;;;;;2.4;1.8;;;;;;;34.2;33.83887;939.9322;;;;
2021/08/10 11:07:52;;;;;;;4.1;1.7;;;;;;;34.67;31.45117;939.9135;;;;
2021/08/10 11:10:16;;;;;;;2.2;2;;;;;;;34.79;29.92773;939.8382;;;;
2021/08/10 11:12:45;;;;;;;1.8;1.7;;;;;;;34.97;31.00098;939.8775;;;;
2021/08/10 11:15:07;;;;;;;2.4;1.4;;;;;;;35.08;29.36719;939.892;;;;
2021/08/10 11:17:35;;;;;;;2.3;1.8;;;;;;;35.15;29.43164;939.8513;;;;
2021/08/10 11:19:58;;;;;;;1.8;1.6;;;;;;;34.88;31.2002;939.8378;;;;
2021/08/10 11:22:23;;;;;;;2;1.8;;;;;;;34.11;31.52148;939.8416;;;;
2021/08/10 11:24:50;;;;;;;2.8;1.7;;;;;;;33.73;31.74707;939.8434;;;;
2021/08/10 11:27:13;;;;;;;2;1.8;;;;;;;34.32;31.93262;939.791;;;;
2021/08/10 11:29:38;;;;;;;2.1;1.6;;;;;;;34.61;30.15723;939.7484;;;;
2021/08/10 11:32:03;;;;;;;2.9;2;;;;;;;34.52;31.48926;939.745;;;;
2021/08/10 11:34:28;;;;;;;2.2;1.8;;;;;;;33.96;32.11133;939.7466;;;;
2021/08/10 11:36:54;;;;;;;2.9;2.2;;;;;;;33.93;32.01465;939.7855;;;;
2021/08/10 11:39:19;;;;;;;2.3;1.9;;;;;;;33.49;32.55957;939.7225;;;;
2021/08/10 11:41:44;;;;;;;2.4;1.8;;;;;;;32.94;33.31348;939.8011;;;;
2021/08/10 11:44:09;;;;;;;2.1;1.7;;;;;;;33.5;31.95898;939.7455;;;;
2021/08/10 11:46:36;;;;;;;1.7;1.6;;;;;;;31.9;34.42383;939.7336;;;;
2021/08/10 11:49:01;;;;;;;2;1.8;;;;;;;32.02;34.00098;939.6978;;;;
2021/08/10 11:51:27;;;;;;;1.8;1.7;;;;;;;31.89;34.48242;939.7249;;;;
2021/08/10 11:53:52;;;;;;;2.4;2;;;;;;;31.03;36.66602;939.6788;;;;
2021/08/10 11:56:18;;;;;;;2.6;1.9;;;;;;;30.34;38.24512;939.7355;;;;
2021/08/10 11:58:44;;;;;;;2;1.8;;;;;;;30.54;37.62891;939.6633;;;;
2021/08/10 12:01:09;;;;;;;2.9;1.9;;;;;;;30.05;38.53027;939.6794;;;;
2021/08/10 12:03:36;;;;;;;3.3;2;;;;;;;30.26;40.90137;939.6749;;;;
2021/08/10 12:06:01;;;;;;;1.8;1.7;;;;;;;28.86;39.78613;939.6372;;;;
2021/08/10 12:08:26;;;;;;;3.2;2;;;;;;;28.12;44.09375;939.6404;;;;
2021/08/10 12:10:54;;;;;;;3;1.8;;;;;;;28.26;44.46387;939.6553;;;;
2021/08/10 12:13:19;;;;;;;2.4;2;;;;;;;28.25;43.71387;939.6493;;;;
2021/08/10 12:15:58;;;;;;;3;2.1;;;;;;;27.59;46.26074;939.6306;;;;
2021/08/10 12:18:23;;;;;;;2.5;1.9;;;;;;;27.61;46.22754;939.5942;;;;
2021/08/10 12:20:49;;;;;;;3.1;2.1;;;;;;;28.28;45.5;939.6439;;;;
2021/08/10 12:23:16;;;;;;;2.3;2.1;;;;;;;28.41;44.87109;939.5731;;;;
2021/08/10 12:25:41;;;;;;;2.6;1.8;;;;;;;29.01;42.52539;939.5503;;;;
2021/08/10 12:28:06;;;;;;;2.2;2;;;;;;;28.62;43.53613;939.5016;;;;
2021/08/10 12:30:32;;;;;;;2.3;1.9;;;;;;;28.16;46.71191;939.4642;;;;
2021/08/10 12:32:58;;;;;;;2.5;2;;;;;;;27.88;45.93457;939.5066;;;;
2021/08/10 12:35:26;;;;;;;3.8;2;;;;;;;27.9;44.7959;939.5064;;;;
2021/08/10 12:37:48;;;;;;;2.1;1.8;;;;;;;27.3;47.39355;939.4528;;;;
2021/08/10 12:40:17;;;;;;;2.1;1.7;;;;;;;27.88;47.37109;939.4813;;;;
2021/08/10 12:42:41;;;;;;;2.2;1.9;;;;;;;27.61;46.07227;939.4277;;;;
2021/08/10 12:45:06;;;;;;;2.5;2;;;;;;;27.06;48.85059;939.457;;;;
2021/08/10 12:47:31;;;;;;;2.6;2.1;;;;;;;27.04;49.85547;939.4465;;;;
2021/08/10 12:49:59;;;;;;;2.6;2;;;;;;;27.29;47.74805;939.4133;;;;
2021/08/10 12:52:23;;;;;;;2.7;1.8;;;;;;;27.57;46.12891;939.3828;;;;
2021/08/10 12:54:52;;;;;;;3.1;2.1;;;;;;;27.72;47.75879;939.4094;;;;
2021/08/10 12:57:18;;;;;;;2.5;2;;;;;;;28.1;44.20996;939.3603;;;;
2021/08/10 12:59:45;;;;;;;3;2.1;;;;;;;28.29;43.84961;939.3308;;;;
2021/08/10 13:02:11;;;;;;;2.1;1.8;;;;;;;28.45;43.18652;939.3541;;;;
2021/08/10 13:04:36;;;;;;;3.5;2.5;;;;;;;28.25;44.99707;939.2866;;;;
2021/08/10 13:07:02;;;;;;;2.9;2.2;;;;;;;27.67;47.63477;939.2288;;;;
2021/08/10 13:09:27;;;;;;;2.6;2.1;;;;;;;27.66;49.48438;939.2411;;;;
2021/08/10 13:11:53;;;;;;;2.5;2.2;;;;;;;28.08;46.66895;939.2285;;;;
2021/08/10 13:14:19;;;;;;;2.6;2.1;;;;;;;27.96;43.99414;939.1886;;;;
2021/08/10 13:16:52;;;;;;;2.5;1.9;;;;;;;28.18;45.48926;939.1755;;;;
2021/08/10 13:19:18;;;;;;;2.5;2.1;;;;;;;27.24;48.54883;939.2076;;;;
2021/08/10 13:21:43;;;;;;;3.3;2.1;;;;;;;27.26;48.53906;939.222;;;;
2021/08/10 13:24:10;;;;;;;3.9;2.2;;;;;;;27.25;48.1709;939.1889;;;;
2021/08/10 13:26:35;;;;;;;2.6;2;;;;;;;27.55;47.32422;939.177;;;;
2021/08/10 13:29:02;;;;;;;3.1;2.1;;;;;;;27.72;44.73145;939.1844;;;;
2021/08/10 13:31:27;;;;;;;2.3;2;;;;;;;27.63;43.84375;939.0986;;;;
2021/08/10 13:33:56;;;;;;;2.4;2;;;;;;;27.6;43.69824;939.0956;;;;
2021/08/10 13:36:21;;;;;;;2.7;2.2;;;;;;;27.68;44.70215;939.1067;;;;
2021/08/10 13:38:49;;;;;;;2.7;1.9;;;;;;;27.78;43.88184;939.0104;;;;
2021/08/10 13:41:14;;;;;;;2.3;2.1;;;;;;;27.54;45.38965;939.1177;;;;
2021/08/10 13:43:39;;;;;;;2.5;1.9;;;;;;;27.74;44.89941;939.0582;;;;
2021/08/10 13:46:06;;;;;;;2.8;2.1;;;;;;;27.94;44.66895;939.0097;;;;
2021/08/10 13:48:31;;;;;;;3.1;2.3;;;;;;;27.84;44.43359;939.003;;;;
2021/08/10 13:50:58;;;;;;;2.4;2;;;;;;;27.9;44.55957;938.9816;;;;
2021/08/10 13:53:26;;;;;;;3.2;2.4;;;;;;;27.89;44.7832;939.0034;;;;
2021/08/10 13:55:48;;;;;;;3.4;2.4;;;;;;;27.95;44.89648;938.9131;;;;
2021/08/10 13:58:16;;;;;;;2.3;2;;;;;;;27.72;45.1582;938.8892;;;;
2021/08/10 14:00:41;;;;;;;2.7;2.2;;;;;;;27.84;44.56543;938.9225;;;;
2021/08/10 14:03:10;;;;;;;2.9;2.1;;;;;;;27.81;43.54004;938.9389;;;;
2021/08/10 14:05:32;;;;;;;2.4;2;;;;;;;27.86;44.42383;938.9807;;;;
2021/08/10 14:07:57;;;;;;;4;2.4;;;;;;;28.05;44.7168;938.997;;;;
2021/08/10 14:10:22;;;;;;;3.2;2.1;;;;;;;28;45.05664;938.9938;;;;
2021/08/10 14:12:48;;;;;;;2.7;2.4;;;;;;;28.02;43.72656;938.9969;;;;
2021/08/10 14:15:14;;;;;;;2.2;2;;;;;;;27.78;45.14063;938.9168;;;;
2021/08/10 14:17:39;;;;;;;3.9;2.4;;;;;;;27.71;46.03613;938.9402;;;;
2021/08/10 14:20:04;;;;;;;2.7;2.2;;;;;;;27.82;46.33301;938.9152;;;;
2021/08/10 14:22:31;;;;;;;2.5;2.3;;;;;;;28.07;44.93164;938.9703;;;;
2021/08/10 14:24:56;;;;;;;2.3;1.8;;;;;;;28.16;43.87207;938.9323;;;;
2021/08/10 14:27:23;;;;;;;3.1;2.5;;;;;;;27.77;46.3623;938.9838;;;;
2021/08/10 14:29:47;;;;;;;2.8;2.1;;;;;;;27.82;44.2666;939.0051;;;;
2021/08/10 14:32:13;;;;;;;3.8;2.3;;;;;;;27.8;45.35645;939.0129;;;;
2021/08/10 14:34:38;;;;;;;2.1;1.9;;;;;;;27.63;45.59961;938.9849;;;;
2021/08/10 14:37:04;;;;;;;2.9;2.2;;;;;;;27.52;45.29199;939.0511;;;;
2021/08/10 14:39:29;;;;;;;3.4;2.2;;;;;;;27.58;46.20117;939.0287;;;;
2021/08/10 14:41:57;;;;;;;2.6;2.3;;;;;;;27.53;47.99902;939.0849;;;;
2021/08/10 14:44:22;;;;;;;2.7;2.1;;;;;;;27.55;45.91309;939.072;;;;
2021/08/10 14:46:51;;;;;;;2.7;2;;;;;;;27.51;47.67676;939.0966;;;;
2021/08/10 14:49:15;;;;;;;2.9;2.3;;;;;;;27.37;48.95508;939.0497;;;;
2021/08/10 14:51:42;;;;;;;3;2.2;;;;;;;27.07;49.3125;939.0839;;;;
2021/08/10 14:54:07;;;;;;;2.6;2.2;;;;;;;26.75;48.93457;939.0368;;;;
2021/08/10 14:56:32;;;;;;;2.6;2.3;;;;;;;26.77;47.66895;939.1125;;;;
2021/08/10 14:58:57;;;;;;;3.3;2.5;;;;;;;26.78;48.41602;939.1025;;;;
2021/08/10 15:01:24;;;;;;;4.7;2.4;;;;;;;26.88;47.5498;939.122;;;;
2021/08/10 15:03:51;;;;;;;3.4;2.3;;;;;;;26.91;47.96875;939.1481;;;;
2021/08/10 15:06:16;;;;;;;2.9;2.4;;;;;;;27;48.32227;939.178;;;;
2021/08/10 15:08:41;;;;;;;2.6;2.2;;;;;;;27.08;48.95801;939.1454;;;;
2021/08/10 15:11:08;;;;;;;3.2;2.2;;;;;;;26.87;48.68652;939.0751;;;;
2021/08/10 15:13:33;;;;;;;2.3;2.1;;;;;;;27.03;50.04492;939.0728;;;;
2021/08/10 15:16:07;;;;;;;2.5;2.2;;;;;;;27.1;48.55762;938.9819;;;;
2021/08/10 15:18:32;;;;;;;5.4;2.5;;;;;;;26.95;49.25293;939.0333;;;;
2021/08/10 15:20:58;;;;;;;4.9;2.5;;;;;;;26.92;49.43945;939.0608;;;;
2021/08/10 15:23:25;;;;;;;5.7;2.4;;;;;;;26.97;47.82031;939.056;;;;
2021/08/10 15:25:51;;;;;;;3.2;2.1;;;;;;;27.02;48.2998;939.035;;;;
2021/08/10 15:28:17;;;;;;;3.7;2.3;;;;;;;26.97;49.14844;939.0516;;;;
2021/08/10 15:30:42;;;;;;;2.5;2;;;;;;;26.94;47.62793;938.952;;;;
2021/08/10 15:33:15;;;;;;;2.8;2.4;;;;;;;26.96;48.00879;938.983;;;;
2021/08/10 15:35:44;;;;;;;3.5;2.2;;;;;;;27.02;46.73535;938.9733;;;;